sensor_id;sensor_type;location;lat;lon;timestamp;P1;durP1;ratioP1;P2;durP2;ratioP2
77234;SDS011;66253;50.526;14.974;2023-05-21T00:01:57;17.40;;;10.70;;
77234;SDS011;66253;50.526;14.974;2023-05-21T00:04:46;18.60;;;10.50;;
77234;SDS011;66253;50.526;14.974;2023-05-21T00:07:34;19.30;;;11.30;;
77234;SDS011;66253;50.526;14.974;2023-05-21T00:10:23;18.50;;;11.50;;
77234;SDS011;66253;50.526;14.974;2023-05-21T00:13:12;20.30;;;10.60;;
77234;SDS011;66253;50.526;14.974;2023-05-21T00:16:00;19.00;;;11.20;;
77234;SDS011;66253;50.526;14.974;2023-05-21T00:18:49;17.50;;;11.80;;
77234;SDS011;66253;50.526;14.974;2023-05-21T00:21:37;16.90;;;10.40;;
77234;SDS011;66253;50.526;14.974;2023-05-21T00:24:26;16.80;;;10.40;;
77234;SDS011;66253;50.526;14.974;2023-05-21T00:27:15;18.10;;;10.30;;
77234;SDS011;66253;50.526;14.974;2023-05-21T00:30:03;17.60;;;11.30;;
77234;SDS011;66253;50.526;14.974;2023-05-21T00:32:52;19.60;;;12.20;;
77234;SDS011;66253;50.526;14.974;2023-05-21T00:35:40;15.80;;;10.30;;
77234;SDS011;66253;50.526;14.974;2023-05-21T00:38:29;19.80;;;12.30;;
77234;SDS011;66253;50.526;14.974;2023-05-21T00:41:17;19.10;;;12.30;;
77234;SDS011;66253;50.526;14.974;2023-05-21T00:44:06;19.50;;;11.50;;
77234;SDS011;66253;50.526;14.974;2023-05-21T00:46:56;19.00;;;11.80;;
77234;SDS011;66253;50.526;14.974;2023-05-21T00:49:45;18.40;;;10.70;;
77234;SDS011;66253;50.526;14.974;2023-05-21T00:52:34;17.80;;;10.60;;
77234;SDS011;66253;50.526;14.974;2023-05-21T00:55:22;18.90;;;12.00;;
77234;SDS011;66253;50.526;14.974;2023-05-21T00:58:11;18.70;;;10.60;;
77234;SDS011;66253;50.526;14.974;2023-05-21T01:01:00;20.40;;;11.20;;
77234;SDS011;66253;50.526;14.974;2023-05-21T01:03:48;19.60;;;10.70;;
77234;SDS011;66253;50.526;14.974;2023-05-21T01:06:37;18.30;;;10.70;;
77234;SDS011;66253;50.526;14.974;2023-05-21T01:09:26;18.60;;;11.20;;
77234;SDS011;66253;50.526;14.974;2023-05-21T01:12:15;17.00;;;11.40;;
77234;SDS011;66253;50.526;14.974;2023-05-21T01:15:05;18.90;;;10.70;;
77234;SDS011;66253;50.526;14.974;2023-05-21T01:17:55;18.80;;;10.90;;
77234;SDS011;66253;50.526;14.974;2023-05-21T01:20:44;18.60;;;10.40;;
77234;SDS011;66253;50.526;14.974;2023-05-21T01:23:32;20.10;;;12.00;;
77234;SDS011;66253;50.526;14.974;2023-05-21T01:26:21;17.70;;;11.10;;
77234;SDS011;66253;50.526;14.974;2023-05-21T01:29:09;19.20;;;11.70;;
77234;SDS011;66253;50.526;14.974;2023-05-21T01:32:01;17.80;;;10.90;;
77234;SDS011;66253;50.526;14.974;2023-05-21T01:35:03;18.50;;;11.10;;
77234;SDS011;66253;50.526;14.974;2023-05-21T01:37:57;18.40;;;11.90;;
77234;SDS011;66253;50.526;14.974;2023-05-21T01:40:51;21.30;;;12.30;;
77234;SDS011;66253;50.526;14.974;2023-05-21T01:43:38;20.00;;;13.10;;
77234;SDS011;66253;50.526;14.974;2023-05-21T01:46:31;20.30;;;11.10;;
77234;SDS011;66253;50.526;14.974;2023-05-21T01:49:21;21.00;;;13.20;;
77234;SDS011;66253;50.526;14.974;2023-05-21T01:52:10;19.30;;;12.60;;
77234;SDS011;66253;50.526;14.974;2023-05-21T01:58:19;20.00;;;11.10;;
77234;SDS011;66253;50.526;14.974;2023-05-21T02:01:08;17.60;;;10.30;;
77234;SDS011;66253;50.526;14.974;2023-05-21T02:03:57;18.50;;;11.30;;
77234;SDS011;66253;50.526;14.974;2023-05-21T02:06:45;17.20;;;11.50;;
77234;SDS011;66253;50.526;14.974;2023-05-21T02:09:26;20.00;;;11.10;;
77234;SDS011;66253;50.526;14.974;2023-05-21T02:12:14;17.90;;;10.50;;
77234;SDS011;66253;50.526;14.974;2023-05-21T02:15:04;19.00;;;10.90;;
77234;SDS011;66253;50.526;14.974;2023-05-21T02:17:53;17.60;;;10.70;;
77234;SDS011;66253;50.526;14.974;2023-05-21T02:20:34;16.90;;;10.60;;
77234;SDS011;66253;50.526;14.974;2023-05-21T02:23:22;15.80;;;10.20;;
77234;SDS011;66253;50.526;14.974;2023-05-21T02:26:11;17.10;;;9.90;;
77234;SDS011;66253;50.526;14.974;2023-05-21T02:28:59;17.90;;;10.80;;
77234;SDS011;66253;50.526;14.974;2023-05-21T02:34:36;17.70;;;10.40;;
77234;SDS011;66253;50.526;14.974;2023-05-21T02:37:18;19.10;;;11.30;;
77234;SDS011;66253;50.526;14.974;2023-05-21T02:42:55;16.40;;;8.50;;
77234;SDS011;66253;50.526;14.974;2023-05-21T02:45:43;18.30;;;11.40;;
77234;SDS011;66253;50.526;14.974;2023-05-21T02:48:32;16.40;;;11.10;;
77234;SDS011;66253;50.526;14.974;2023-05-21T02:51:20;17.80;;;10.90;;
77234;SDS011;66253;50.526;14.974;2023-05-21T02:54:07;16.30;;;10.80;;
77234;SDS011;66253;50.526;14.974;2023-05-21T02:56:56;16.80;;;11.40;;
77234;SDS011;66253;50.526;14.974;2023-05-21T02:59:44;17.10;;;11.00;;
77234;SDS011;66253;50.526;14.974;2023-05-21T03:02:33;16.70;;;10.30;;
77234;SDS011;66253;50.526;14.974;2023-05-21T03:05:21;19.10;;;10.80;;
77234;SDS011;66253;50.526;14.974;2023-05-21T03:08:10;22.80;;;12.60;;
77234;SDS011;66253;50.526;14.974;2023-05-21T03:10:58;19.00;;;11.90;;
77234;SDS011;66253;50.526;14.974;2023-05-21T03:13:47;17.60;;;11.50;;
77234;SDS011;66253;50.526;14.974;2023-05-21T03:16:35;17.60;;;9.80;;
77234;SDS011;66253;50.526;14.974;2023-05-21T03:19:24;16.90;;;10.20;;
77234;SDS011;66253;50.526;14.974;2023-05-21T03:22:12;17.30;;;10.70;;
77234;SDS011;66253;50.526;14.974;2023-05-21T03:25:01;17.60;;;11.30;;
77234;SDS011;66253;50.526;14.974;2023-05-21T03:27:50;19.50;;;11.40;;
77234;SDS011;66253;50.526;14.974;2023-05-21T03:30:38;17.60;;;11.10;;
77234;SDS011;66253;50.526;14.974;2023-05-21T03:33:27;17.10;;;10.70;;
77234;SDS011;66253;50.526;14.974;2023-05-21T03:36:15;17.20;;;10.80;;
77234;SDS011;66253;50.526;14.974;2023-05-21T03:39:04;18.80;;;11.10;;
77234;SDS011;66253;50.526;14.974;2023-05-21T03:41:53;15.90;;;9.10;;
77234;SDS011;66253;50.526;14.974;2023-05-21T03:44:41;19.10;;;10.50;;
77234;SDS011;66253;50.526;14.974;2023-05-21T03:47:30;15.80;;;10.70;;
77234;SDS011;66253;50.526;14.974;2023-05-21T03:50:18;19.20;;;11.70;;
77234;SDS011;66253;50.526;14.974;2023-05-21T03:53:07;18.30;;;10.80;;
77234;SDS011;66253;50.526;14.974;2023-05-21T03:55:55;16.60;;;9.70;;
77234;SDS011;66253;50.526;14.974;2023-05-21T03:58:44;18.20;;;10.10;;
77234;SDS011;66253;50.526;14.974;2023-05-21T04:01:32;16.90;;;11.30;;
77234;SDS011;66253;50.526;14.974;2023-05-21T04:04:21;17.30;;;10.70;;
77234;SDS011;66253;50.526;14.974;2023-05-21T04:07:09;17.80;;;10.30;;
77234;SDS011;66253;50.526;14.974;2023-05-21T04:09:58;16.70;;;10.00;;
77234;SDS011;66253;50.526;14.974;2023-05-21T04:12:46;17.40;;;10.20;;
77234;SDS011;66253;50.526;14.974;2023-05-21T04:25:49;19.20;;;10.90;;
77234;SDS011;66253;50.526;14.974;2023-05-21T04:28:37;16.20;;;11.50;;
77234;SDS011;66253;50.526;14.974;2023-05-21T04:31:26;20.40;;;12.90;;
77234;SDS011;66253;50.526;14.974;2023-05-21T04:34:15;18.40;;;10.90;;
77234;SDS011;66253;50.526;14.974;2023-05-21T04:37:03;16.50;;;10.70;;
77234;SDS011;66253;50.526;14.974;2023-05-21T04:39:52;18.80;;;12.50;;
77234;SDS011;66253;50.526;14.974;2023-05-21T04:42:41;16.60;;;11.00;;
77234;SDS011;66253;50.526;14.974;2023-05-21T04:45:30;18.00;;;10.60;;
77234;SDS011;66253;50.526;14.974;2023-05-21T04:48:18;17.80;;;11.00;;
77234;SDS011;66253;50.526;14.974;2023-05-21T04:51:07;16.60;;;10.90;;
77234;SDS011;66253;50.526;14.974;2023-05-21T04:53:55;15.00;;;10.90;;
77234;SDS011;66253;50.526;14.974;2023-05-21T04:56:44;16.70;;;11.50;;
77234;SDS011;66253;50.526;14.974;2023-05-21T04:59:32;15.40;;;11.30;;
77234;SDS011;66253;50.526;14.974;2023-05-21T05:02:21;14.50;;;9.40;;
77234;SDS011;66253;50.526;14.974;2023-05-21T05:05:08;14.80;;;10.60;;
77234;SDS011;66253;50.526;14.974;2023-05-21T05:07:48;17.10;;;11.30;;
77234;SDS011;66253;50.526;14.974;2023-05-21T05:10:37;15.60;;;10.10;;
77234;SDS011;66253;50.526;14.974;2023-05-21T05:13:17;13.40;;;9.40;;
77234;SDS011;66253;50.526;14.974;2023-05-21T05:15:54;14.70;;;9.70;;
77234;SDS011;66253;50.526;14.974;2023-05-21T05:18:33;14.30;;;9.40;;
77234;SDS011;66253;50.526;14.974;2023-05-21T05:21:21;13.30;;;9.60;;
77234;SDS011;66253;50.526;14.974;2023-05-21T05:23:59;13.70;;;10.30;;
77234;SDS011;66253;50.526;14.974;2023-05-21T05:26:28;13.20;;;10.40;;
77234;SDS011;66253;50.526;14.974;2023-05-21T05:28:59;14.80;;;10.30;;
77234;SDS011;66253;50.526;14.974;2023-05-21T05:31:40;13.00;;;9.70;;
77234;SDS011;66253;50.526;14.974;2023-05-21T05:34:11;19.50;;;10.40;;
77234;SDS011;66253;50.526;14.974;2023-05-21T05:36:51;12.90;;;9.80;;
77234;SDS011;66253;50.526;14.974;2023-05-21T05:39:22;14.10;;;9.90;;
77234;SDS011;66253;50.526;14.974;2023-05-21T05:41:54;13.70;;;9.20;;
77234;SDS011;66253;50.526;14.974;2023-05-21T05:44:24;13.60;;;9.90;;
77234;SDS011;66253;50.526;14.974;2023-05-21T05:46:56;16.20;;;10.30;;
77234;SDS011;66253;50.526;14.974;2023-05-21T05:49:27;13.50;;;9.90;;
77234;SDS011;66253;50.526;14.974;2023-05-21T05:51:58;14.80;;;10.30;;
77234;SDS011;66253;50.526;14.974;2023-05-21T05:54:29;13.80;;;9.50;;
77234;SDS011;66253;50.526;14.974;2023-05-21T05:57:02;15.00;;;12.00;;
77234;SDS011;66253;50.526;14.974;2023-05-21T05:59:38;16.20;;;10.80;;
77234;SDS011;66253;50.526;14.974;2023-05-21T06:02:26;17.70;;;10.40;;
77234;SDS011;66253;50.526;14.974;2023-05-21T06:04:57;14.10;;;9.70;;
77234;SDS011;66253;50.526;14.974;2023-05-21T06:07:26;15.10;;;9.60;;
77234;SDS011;66253;50.526;14.974;2023-05-21T06:09:57;16.30;;;10.50;;
77234;SDS011;66253;50.526;14.974;2023-05-21T06:12:28;19.20;;;11.20;;
77234;SDS011;66253;50.526;14.974;2023-05-21T06:14:56;14.50;;;10.70;;
77234;SDS011;66253;50.526;14.974;2023-05-21T06:17:32;17.20;;;10.70;;
77234;SDS011;66253;50.526;14.974;2023-05-21T06:20:11;16.30;;;10.60;;
77234;SDS011;66253;50.526;14.974;2023-05-21T06:22:59;16.30;;;10.40;;
77234;SDS011;66253;50.526;14.974;2023-05-21T06:25:28;16.50;;;10.40;;
77234;SDS011;66253;50.526;14.974;2023-05-21T06:27:56;13.50;;;9.50;;
77234;SDS011;66253;50.526;14.974;2023-05-21T06:30:25;14.20;;;9.80;;
77234;SDS011;66253;50.526;14.974;2023-05-21T06:32:53;14.40;;;10.70;;
77234;SDS011;66253;50.526;14.974;2023-05-21T06:35:22;15.60;;;10.00;;
77234;SDS011;66253;50.526;14.974;2023-05-21T06:37:50;14.40;;;9.80;;
77234;SDS011;66253;50.526;14.974;2023-05-21T06:40:21;13.30;;;10.70;;
77234;SDS011;66253;50.526;14.974;2023-05-21T06:42:52;15.80;;;10.30;;
77234;SDS011;66253;50.526;14.974;2023-05-21T06:45:24;13.10;;;9.50;;
77234;SDS011;66253;50.526;14.974;2023-05-21T06:47:55;13.20;;;9.80;;
77234;SDS011;66253;50.526;14.974;2023-05-21T06:50:24;12.50;;;9.10;;
77234;SDS011;66253;50.526;14.974;2023-05-21T06:53:03;14.60;;;9.10;;
77234;SDS011;66253;50.526;14.974;2023-05-21T06:55:34;13.70;;;10.50;;
77234;SDS011;66253;50.526;14.974;2023-05-21T06:58:02;15.50;;;10.10;;
77234;SDS011;66253;50.526;14.974;2023-05-21T07:00:31;14.20;;;9.20;;
77234;SDS011;66253;50.526;14.974;2023-05-21T07:02:59;14.10;;;10.30;;
77234;SDS011;66253;50.526;14.974;2023-05-21T07:05:27;12.40;;;9.40;;
77234;SDS011;66253;50.526;14.974;2023-05-21T07:07:56;13.20;;;8.50;;
77234;SDS011;66253;50.526;14.974;2023-05-21T07:10:34;12.90;;;9.10;;
77234;SDS011;66253;50.526;14.974;2023-05-21T07:13:03;13.60;;;9.80;;
77234;SDS011;66253;50.526;14.974;2023-05-21T07:15:33;11.80;;;8.40;;
77234;SDS011;66253;50.526;14.974;2023-05-21T07:18:05;9.30;;;6.90;;
77234;SDS011;66253;50.526;14.974;2023-05-21T07:20:33;13.80;;;8.40;;
77234;SDS011;66253;50.526;14.974;2023-05-21T07:23:02;11.40;;;7.10;;
77234;SDS011;66253;50.526;14.974;2023-05-21T07:25:30;10.70;;;7.70;;
77234;SDS011;66253;50.526;14.974;2023-05-21T07:28:06;11.60;;;7.50;;
77234;SDS011;66253;50.526;14.974;2023-05-21T07:30:55;11.20;;;7.80;;
77234;SDS011;66253;50.526;14.974;2023-05-21T07:33:27;11.70;;;7.80;;
77234;SDS011;66253;50.526;14.974;2023-05-21T07:35:58;10.70;;;7.50;;
77234;SDS011;66253;50.526;14.974;2023-05-21T07:38:26;11.50;;;7.40;;
77234;SDS011;66253;50.526;14.974;2023-05-21T07:40:55;10.60;;;6.90;;
77234;SDS011;66253;50.526;14.974;2023-05-21T07:43:23;10.30;;;7.00;;
77234;SDS011;66253;50.526;14.974;2023-05-21T07:45:52;11.40;;;7.10;;
77234;SDS011;66253;50.526;14.974;2023-05-21T07:48:23;10.90;;;7.50;;
77234;SDS011;66253;50.526;14.974;2023-05-21T07:50:51;15.60;;;7.50;;
77234;SDS011;66253;50.526;14.974;2023-05-21T07:53:19;10.70;;;6.40;;
77234;SDS011;66253;50.526;14.974;2023-05-21T07:55:48;10.20;;;7.10;;
77234;SDS011;66253;50.526;14.974;2023-05-21T07:58:16;8.20;;;6.20;;
77234;SDS011;66253;50.526;14.974;2023-05-21T08:01:05;10.20;;;6.30;;
77234;SDS011;66253;50.526;14.974;2023-05-21T08:03:33;10.60;;;6.90;;
77234;SDS011;66253;50.526;14.974;2023-05-21T08:06:02;11.00;;;7.10;;
77234;SDS011;66253;50.526;14.974;2023-05-21T08:08:31;9.50;;;6.40;;
77234;SDS011;66253;50.526;14.974;2023-05-21T08:11:01;10.80;;;6.50;;
77234;SDS011;66253;50.526;14.974;2023-05-21T08:13:30;9.60;;;6.50;;
77234;SDS011;66253;50.526;14.974;2023-05-21T08:16:01;9.90;;;6.90;;
77234;SDS011;66253;50.526;14.974;2023-05-21T08:18:33;11.70;;;6.40;;
77234;SDS011;66253;50.526;14.974;2023-05-21T08:21:01;10.40;;;7.80;;
77234;SDS011;66253;50.526;14.974;2023-05-21T08:23:30;10.10;;;6.20;;
77234;SDS011;66253;50.526;14.974;2023-05-21T08:25:58;9.90;;;6.70;;
77234;SDS011;66253;50.526;14.974;2023-05-21T08:28:27;9.30;;;6.70;;
77234;SDS011;66253;50.526;14.974;2023-05-21T08:30:56;12.20;;;6.40;;
77234;SDS011;66253;50.526;14.974;2023-05-21T08:33:24;12.10;;;6.70;;
77234;SDS011;66253;50.526;14.974;2023-05-21T08:35:52;10.00;;;6.50;;
77234;SDS011;66253;50.526;14.974;2023-05-21T08:38:21;9.70;;;6.70;;
77234;SDS011;66253;50.526;14.974;2023-05-21T08:40:49;8.70;;;6.50;;
77234;SDS011;66253;50.526;14.974;2023-05-21T08:43:20;8.70;;;6.60;;
77234;SDS011;66253;50.526;14.974;2023-05-21T08:45:51;10.40;;;6.70;;
77234;SDS011;66253;50.526;14.974;2023-05-21T08:48:22;11.20;;;7.20;;
77234;SDS011;66253;50.526;14.974;2023-05-21T08:50:50;9.80;;;6.50;;
77234;SDS011;66253;50.526;14.974;2023-05-21T08:53:20;11.20;;;7.60;;
77234;SDS011;66253;50.526;14.974;2023-05-21T08:55:48;10.70;;;6.60;;
77234;SDS011;66253;50.526;14.974;2023-05-21T08:58:22;11.90;;;6.70;;
77234;SDS011;66253;50.526;14.974;2023-05-21T09:00:50;9.50;;;6.40;;
77234;SDS011;66253;50.526;14.974;2023-05-21T09:03:19;9.00;;;6.10;;
77234;SDS011;66253;50.526;14.974;2023-05-21T09:05:48;10.30;;;6.70;;
77234;SDS011;66253;50.526;14.974;2023-05-21T09:08:17;8.70;;;6.20;;
77234;SDS011;66253;50.526;14.974;2023-05-21T09:10:50;9.00;;;6.10;;
77234;SDS011;66253;50.526;14.974;2023-05-21T09:13:19;9.40;;;6.20;;
77234;SDS011;66253;50.526;14.974;2023-05-21T09:15:50;9.50;;;5.70;;
77234;SDS011;66253;50.526;14.974;2023-05-21T09:18:19;8.10;;;5.70;;
77234;SDS011;66253;50.526;14.974;2023-05-21T09:20:47;8.30;;;6.10;;
77234;SDS011;66253;50.526;14.974;2023-05-21T09:23:17;8.70;;;5.60;;
77234;SDS011;66253;50.526;14.974;2023-05-21T09:25:48;10.70;;;5.80;;
77234;SDS011;66253;50.526;14.974;2023-05-21T09:28:17;9.50;;;6.10;;
77234;SDS011;66253;50.526;14.974;2023-05-21T09:30:46;8.60;;;5.50;;
77234;SDS011;66253;50.526;14.974;2023-05-21T09:33:24;9.80;;;6.00;;
77234;SDS011;66253;50.526;14.974;2023-05-21T09:35:53;9.30;;;5.90;;
77234;SDS011;66253;50.526;14.974;2023-05-21T09:38:22;8.00;;;5.90;;
77234;SDS011;66253;50.526;14.974;2023-05-21T09:43:20;9.60;;;5.80;;
77234;SDS011;66253;50.526;14.974;2023-05-21T09:45:51;8.10;;;5.50;;
77234;SDS011;66253;50.526;14.974;2023-05-21T09:48:34;8.00;;;5.20;;
77234;SDS011;66253;50.526;14.974;2023-05-21T09:53:44;7.40;;;4.80;;
77234;SDS011;66253;50.526;14.974;2023-05-21T09:56:17;9.10;;;6.40;;
77234;SDS011;66253;50.526;14.974;2023-05-21T09:58:57;8.30;;;6.50;;
77234;SDS011;66253;50.526;14.974;2023-05-21T10:01:27;9.10;;;5.80;;
77234;SDS011;66253;50.526;14.974;2023-05-21T10:04:07;9.40;;;6.30;;
77234;SDS011;66253;50.526;14.974;2023-05-21T10:06:41;12.10;;;5.90;;
77234;SDS011;66253;50.526;14.974;2023-05-21T10:09:10;8.40;;;5.40;;
77234;SDS011;66253;50.526;14.974;2023-05-21T10:11:41;8.00;;;5.50;;
77234;SDS011;66253;50.526;14.974;2023-05-21T10:14:13;7.90;;;5.60;;
77234;SDS011;66253;50.526;14.974;2023-05-21T10:16:46;8.90;;;5.60;;
77234;SDS011;66253;50.526;14.974;2023-05-21T10:19:15;8.90;;;6.10;;
77234;SDS011;66253;50.526;14.974;2023-05-21T10:21:45;9.10;;;5.60;;
77234;SDS011;66253;50.526;14.974;2023-05-21T10:24:16;9.90;;;6.50;;
77234;SDS011;66253;50.526;14.974;2023-05-21T10:26:45;9.80;;;6.90;;
77234;SDS011;66253;50.526;14.974;2023-05-21T10:29:14;8.20;;;6.10;;
77234;SDS011;66253;50.526;14.974;2023-05-21T10:31:44;9.60;;;6.90;;
77234;SDS011;66253;50.526;14.974;2023-05-21T10:34:15;10.20;;;5.70;;
77234;SDS011;66253;50.526;14.974;2023-05-21T10:36:44;8.20;;;5.70;;
77234;SDS011;66253;50.526;14.974;2023-05-21T10:39:14;8.30;;;5.40;;
77234;SDS011;66253;50.526;14.974;2023-05-21T10:41:45;6.80;;;5.10;;
77234;SDS011;66253;50.526;14.974;2023-05-21T10:44:24;8.10;;;5.20;;
77234;SDS011;66253;50.526;14.974;2023-05-21T10:47:03;8.40;;;5.70;;
77234;SDS011;66253;50.526;14.974;2023-05-21T10:52:49;8.70;;;6.20;;
77234;SDS011;66253;50.526;14.974;2023-05-21T10:55:34;9.40;;;6.30;;
77234;SDS011;66253;50.526;14.974;2023-05-21T11:01:05;8.30;;;5.40;;
77234;SDS011;66253;50.526;14.974;2023-05-21T11:03:37;9.40;;;5.90;;
77234;SDS011;66253;50.526;14.974;2023-05-21T11:06:06;9.00;;;5.10;;
77234;SDS011;66253;50.526;14.974;2023-05-21T11:08:34;10.30;;;5.40;;
77234;SDS011;66253;50.526;14.974;2023-05-21T11:11:04;7.50;;;5.20;;
77234;SDS011;66253;50.526;14.974;2023-05-21T11:13:45;9.10;;;5.40;;
77234;SDS011;66253;50.526;14.974;2023-05-21T11:16:14;7.10;;;5.10;;
77234;SDS011;66253;50.526;14.974;2023-05-21T11:19:01;7.70;;;6.30;;
77234;SDS011;66253;50.526;14.974;2023-05-21T11:21:30;9.40;;;6.00;;
77234;SDS011;66253;50.526;14.974;2023-05-21T11:24:01;8.20;;;5.60;;
77234;SDS011;66253;50.526;14.974;2023-05-21T11:29:31;7.90;;;5.50;;
77234;SDS011;66253;50.526;14.974;2023-05-21T11:32:06;8.10;;;5.10;;
77234;SDS011;66253;50.526;14.974;2023-05-21T11:34:36;8.90;;;5.30;;
77234;SDS011;66253;50.526;14.974;2023-05-21T11:37:22;7.10;;;5.10;;
77234;SDS011;66253;50.526;14.974;2023-05-21T11:39:52;8.40;;;7.20;;
77234;SDS011;66253;50.526;14.974;2023-05-21T11:42:33;8.90;;;6.00;;
77234;SDS011;66253;50.526;14.974;2023-05-21T11:45:04;8.20;;;5.30;;
77234;SDS011;66253;50.526;14.974;2023-05-21T11:47:34;7.80;;;5.10;;
77234;SDS011;66253;50.526;14.974;2023-05-21T11:50:03;8.70;;;5.90;;
77234;SDS011;66253;50.526;14.974;2023-05-21T11:52:37;7.80;;;5.40;;
77234;SDS011;66253;50.526;14.974;2023-05-21T11:55:06;10.00;;;6.40;;
77234;SDS011;66253;50.526;14.974;2023-05-21T11:57:35;7.00;;;5.30;;
77234;SDS011;66253;50.526;14.974;2023-05-21T12:00:11;8.60;;;5.80;;
77234;SDS011;66253;50.526;14.974;2023-05-21T12:02:44;8.00;;;5.40;;
77234;SDS011;66253;50.526;14.974;2023-05-21T12:05:16;7.40;;;5.60;;
77234;SDS011;66253;50.526;14.974;2023-05-21T12:07:48;11.00;;;5.70;;
77234;SDS011;66253;50.526;14.974;2023-05-21T12:10:19;7.10;;;5.00;;
77234;SDS011;66253;50.526;14.974;2023-05-21T12:12:48;8.40;;;5.30;;
77234;SDS011;66253;50.526;14.974;2023-05-21T12:15:17;7.90;;;5.60;;
77234;SDS011;66253;50.526;14.974;2023-05-21T12:17:48;8.10;;;5.90;;
77234;SDS011;66253;50.526;14.974;2023-05-21T12:20:16;8.50;;;5.90;;
77234;SDS011;66253;50.526;14.974;2023-05-21T12:22:44;9.30;;;5.60;;
77234;SDS011;66253;50.526;14.974;2023-05-21T12:25:15;6.70;;;5.50;;
77234;SDS011;66253;50.526;14.974;2023-05-21T12:27:44;9.10;;;5.30;;
77234;SDS011;66253;50.526;14.974;2023-05-21T12:30:13;8.30;;;5.00;;
77234;SDS011;66253;50.526;14.974;2023-05-21T12:32:44;8.00;;;5.00;;
77234;SDS011;66253;50.526;14.974;2023-05-21T12:35:20;7.70;;;5.00;;
77234;SDS011;66253;50.526;14.974;2023-05-21T12:37:49;7.80;;;5.50;;
77234;SDS011;66253;50.526;14.974;2023-05-21T12:40:17;8.00;;;4.90;;
77234;SDS011;66253;50.526;14.974;2023-05-21T12:42:49;7.00;;;5.00;;
77234;SDS011;66253;50.526;14.974;2023-05-21T12:45:17;8.60;;;6.00;;
77234;SDS011;66253;50.526;14.974;2023-05-21T12:47:47;8.40;;;4.90;;
77234;SDS011;66253;50.526;14.974;2023-05-21T12:50:18;7.30;;;5.60;;
77234;SDS011;66253;50.526;14.974;2023-05-21T12:52:47;7.50;;;5.30;;
77234;SDS011;66253;50.526;14.974;2023-05-21T12:55:19;9.50;;;5.50;;
77234;SDS011;66253;50.526;14.974;2023-05-21T12:57:58;7.60;;;5.20;;
77234;SDS011;66253;50.526;14.974;2023-05-21T13:00:29;8.70;;;5.30;;
77234;SDS011;66253;50.526;14.974;2023-05-21T13:02:57;9.10;;;5.70;;
77234;SDS011;66253;50.526;14.974;2023-05-21T13:05:26;8.40;;;5.10;;
77234;SDS011;66253;50.526;14.974;2023-05-21T13:07:54;8.50;;;4.90;;
77234;SDS011;66253;50.526;14.974;2023-05-21T13:10:22;8.60;;;5.30;;
77234;SDS011;66253;50.526;14.974;2023-05-21T13:12:51;7.30;;;4.60;;
77234;SDS011;66253;50.526;14.974;2023-05-21T13:15:19;6.50;;;4.00;;
77234;SDS011;66253;50.526;14.974;2023-05-21T13:17:47;8.90;;;5.30;;
77234;SDS011;66253;50.526;14.974;2023-05-21T13:20:17;8.20;;;4.80;;
77234;SDS011;66253;50.526;14.974;2023-05-21T13:22:48;6.90;;;4.30;;
77234;SDS011;66253;50.526;14.974;2023-05-21T13:25:19;7.80;;;4.70;;
77234;SDS011;66253;50.526;14.974;2023-05-21T13:27:49;6.70;;;4.50;;
77234;SDS011;66253;50.526;14.974;2023-05-21T13:30:18;8.60;;;4.70;;
77234;SDS011;66253;50.526;14.974;2023-05-21T13:32:47;9.00;;;5.30;;
77234;SDS011;66253;50.526;14.974;2023-05-21T13:35:16;7.40;;;4.70;;
77234;SDS011;66253;50.526;14.974;2023-05-21T13:37:45;6.90;;;4.50;;
77234;SDS011;66253;50.526;14.974;2023-05-21T13:40:14;6.00;;;4.30;;
77234;SDS011;66253;50.526;14.974;2023-05-21T13:42:42;6.70;;;4.70;;
77234;SDS011;66253;50.526;14.974;2023-05-21T13:45:12;6.70;;;4.40;;
77234;SDS011;66253;50.526;14.974;2023-05-21T13:47:42;6.70;;;4.10;;
77234;SDS011;66253;50.526;14.974;2023-05-21T13:53:20;6.00;;;4.20;;
77234;SDS011;66253;50.526;14.974;2023-05-21T13:55:48;6.40;;;4.30;;
77234;SDS011;66253;50.526;14.974;2023-05-21T13:58:17;6.10;;;3.80;;
77234;SDS011;66253;50.526;14.974;2023-05-21T14:00:45;6.10;;;3.60;;
77234;SDS011;66253;50.526;14.974;2023-05-21T14:03:13;6.40;;;4.10;;
77234;SDS011;66253;50.526;14.974;2023-05-21T14:05:42;7.00;;;4.10;;
77234;SDS011;66253;50.526;14.974;2023-05-21T14:08:10;6.90;;;4.00;;
77234;SDS011;66253;50.526;14.974;2023-05-21T14:10:38;6.90;;;3.90;;
77234;SDS011;66253;50.526;14.974;2023-05-21T14:13:07;8.60;;;4.80;;
77234;SDS011;66253;50.526;14.974;2023-05-21T14:15:35;5.90;;;4.20;;
77234;SDS011;66253;50.526;14.974;2023-05-21T14:18:04;6.30;;;3.70;;
77234;SDS011;66253;50.526;14.974;2023-05-21T14:20:32;6.70;;;4.60;;
77234;SDS011;66253;50.526;14.974;2023-05-21T14:23:00;6.60;;;3.50;;
77234;SDS011;66253;50.526;14.974;2023-05-21T14:25:29;6.60;;;5.00;;
77234;SDS011;66253;50.526;14.974;2023-05-21T14:27:57;7.00;;;4.10;;
77234;SDS011;66253;50.526;14.974;2023-05-21T14:30:25;6.70;;;4.50;;
77234;SDS011;66253;50.526;14.974;2023-05-21T14:32:54;8.70;;;5.40;;
77234;SDS011;66253;50.526;14.974;2023-05-21T14:35:22;10.30;;;5.20;;
77234;SDS011;66253;50.526;14.974;2023-05-21T14:37:51;7.60;;;5.20;;
77234;SDS011;66253;50.526;14.974;2023-05-21T14:40:19;8.10;;;5.40;;
77234;SDS011;66253;50.526;14.974;2023-05-21T14:42:47;7.90;;;4.80;;
77234;SDS011;66253;50.526;14.974;2023-05-21T14:45:16;8.10;;;5.10;;
77234;SDS011;66253;50.526;14.974;2023-05-21T14:47:44;7.50;;;5.40;;
77234;SDS011;66253;50.526;14.974;2023-05-21T14:50:13;8.00;;;4.80;;
77234;SDS011;66253;50.526;14.974;2023-05-21T14:52:42;9.30;;;5.10;;
77234;SDS011;66253;50.526;14.974;2023-05-21T14:55:11;6.70;;;4.30;;
77234;SDS011;66253;50.526;14.974;2023-05-21T14:57:39;6.70;;;4.90;;
77234;SDS011;66253;50.526;14.974;2023-05-21T15:00:08;8.70;;;5.10;;
77234;SDS011;66253;50.526;14.974;2023-05-21T15:02:38;6.30;;;4.00;;
77234;SDS011;66253;50.526;14.974;2023-05-21T15:05:07;7.70;;;4.70;;
77234;SDS011;66253;50.526;14.974;2023-05-21T15:07:35;7.20;;;5.10;;
77234;SDS011;66253;50.526;14.974;2023-05-21T15:10:04;8.30;;;4.60;;
77234;SDS011;66253;50.526;14.974;2023-05-21T15:12:34;8.10;;;4.20;;
77234;SDS011;66253;50.526;14.974;2023-05-21T15:15:02;6.30;;;4.90;;
77234;SDS011;66253;50.526;14.974;2023-05-21T15:17:32;6.60;;;4.50;;
77234;SDS011;66253;50.526;14.974;2023-05-21T15:20:01;7.70;;;4.20;;
77234;SDS011;66253;50.526;14.974;2023-05-21T15:22:31;6.40;;;3.70;;
77234;SDS011;66253;50.526;14.974;2023-05-21T15:25:00;7.00;;;4.40;;
77234;SDS011;66253;50.526;14.974;2023-05-21T15:27:28;6.20;;;4.60;;
77234;SDS011;66253;50.526;14.974;2023-05-21T15:29:57;6.60;;;3.90;;
77234;SDS011;66253;50.526;14.974;2023-05-21T15:32:26;7.50;;;4.00;;
77234;SDS011;66253;50.526;14.974;2023-05-21T15:34:54;6.80;;;3.80;;
77234;SDS011;66253;50.526;14.974;2023-05-21T15:37:22;7.60;;;4.60;;
77234;SDS011;66253;50.526;14.974;2023-05-21T15:39:50;5.80;;;3.60;;
77234;SDS011;66253;50.526;14.974;2023-05-21T15:42:22;6.80;;;3.50;;
77234;SDS011;66253;50.526;14.974;2023-05-21T15:44:51;6.00;;;4.50;;
77234;SDS011;66253;50.526;14.974;2023-05-21T15:47:30;5.90;;;3.40;;
77234;SDS011;66253;50.526;14.974;2023-05-21T15:49:59;5.00;;;3.00;;
77234;SDS011;66253;50.526;14.974;2023-05-21T15:52:27;6.10;;;4.00;;